Baldwin City, Kansas
Current Conditions -  °F | °C
As of 7:10 AM on Friday 24 Oct 2014 (Local Time) from KLWC Reporting Station
Haze Haze  
Wind Chill: 53°   Ceiling: Unl
Heat Index: 53°   Visibility: 1.2mi
Dew Point: 52°   Wind: 6mph
Humidity: 96%   Direction: 120°ESE
Pressure: 30.05"   Gusts: NA
Location:  38.78°N, 95.19°W
Report Text: KLWC 241210Z AUTO 12005KT 1 1/4SM BR FEW010 12/11 A3005 RMK AO2 T01170111
Loading
Personal Weather Stations






























Interactive Weather Map
Tropical Storm Tracking
New forecast layout! Learn more

10-Day Weather Forecast

Advertisements
Track Severe Weather on mobile